Marienthal, Kansas
Current Conditions -  °F | °C
As of 12:15 AM on Thursday 29 Jan 2015 (Local Time) from K3K3 Reporting Station
Clear Clear  
Wind Chill: 39°   Ceiling: Unl
Heat Index: 45°   Visibility: 10mi
Dew Point: 34°   Wind: 12mph
Humidity: 66%   Direction: 350°N
Pressure: 30.21"   Gusts: 17mph
Location:  38.49°N, 101.21°W
Report Text: K3K3 290615Z AUTO 35010G15KT 10SM CLR 07/01 A3021 RMK AO2
Loading
Personal Weather Stations






























Interactive Weather Map New forecast layout! Learn more

10-Day Weather Forecast

Advertisements
Track Severe Weather on mobile